sensor_id;sensor_type;location;lat;lon;timestamp;P1;durP1;ratioP1;P2;durP2;ratioP2
52618;SDS011;38513;53.234;6.568;2022-08-05T00:01:19;9.98;;;4.20;;
52618;SDS011;38513;53.234;6.568;2022-08-05T00:03:46;11.00;;;3.92;;
52618;SDS011;38513;53.234;6.568;2022-08-05T00:06:15;11.43;;;4.65;;
52618;SDS011;38513;53.234;6.568;2022-08-05T00:08:42;10.07;;;4.60;;
52618;SDS011;38513;53.234;6.568;2022-08-05T00:11:09;9.32;;;4.55;;
52618;SDS011;38513;53.234;6.568;2022-08-05T00:13:37;10.60;;;4.68;;
52618;SDS011;38513;53.234;6.568;2022-08-05T00:16:03;11.30;;;4.53;;
52618;SDS011;38513;53.234;6.568;2022-08-05T00:18:30;9.40;;;4.43;;
52618;SDS011;38513;53.234;6.568;2022-08-05T00:20:56;12.27;;;4.70;;
52618;SDS011;38513;53.234;6.568;2022-08-05T00:23:23;10.13;;;4.82;;
52618;SDS011;38513;53.234;6.568;2022-08-05T00:25:49;10.60;;;5.00;;
52618;SDS011;38513;53.234;6.568;2022-08-05T00:28:15;8.90;;;4.88;;
52618;SDS011;38513;53.234;6.568;2022-08-05T00:30:41;9.57;;;5.40;;
52618;SDS011;38513;53.234;6.568;2022-08-05T00:33:07;10.48;;;5.60;;
52618;SDS011;38513;53.234;6.568;2022-08-05T00:35:34;9.73;;;5.50;;
52618;SDS011;38513;53.234;6.568;2022-08-05T00:38:02;11.90;;;6.60;;
52618;SDS011;38513;53.234;6.568;2022-08-05T00:40:29;9.88;;;6.13;;
52618;SDS011;38513;53.234;6.568;2022-08-05T00:42:58;11.43;;;6.70;;
52618;SDS011;38513;53.234;6.568;2022-08-05T00:45:25;11.98;;;6.40;;
52618;SDS011;38513;53.234;6.568;2022-08-05T00:56:43;11.32;;;6.82;;
52618;SDS011;38513;53.234;6.568;2022-08-05T00:59:12;12.75;;;6.82;;
52618;SDS011;38513;53.234;6.568;2022-08-05T01:02:01;11.23;;;6.80;;
52618;SDS011;38513;53.234;6.568;2022-08-05T01:04:27;11.97;;;7.20;;
52618;SDS011;38513;53.234;6.568;2022-08-05T01:06:53;9.75;;;6.75;;
52618;SDS011;38513;53.234;6.568;2022-08-05T01:09:19;12.73;;;6.72;;
52618;SDS011;38513;53.234;6.568;2022-08-05T01:11:47;10.27;;;6.30;;
52618;SDS011;38513;53.234;6.568;2022-08-05T01:14:24;11.80;;;6.32;;
52618;SDS011;38513;53.234;6.568;2022-08-05T01:19:46;12.85;;;6.40;;
52618;SDS011;38513;53.234;6.568;2022-08-05T01:22:17;12.43;;;5.90;;
52618;SDS011;38513;53.234;6.568;2022-08-05T01:24:50;11.32;;;5.55;;
52618;SDS011;38513;53.234;6.568;2022-08-05T01:30:05;10.02;;;5.03;;
52618;SDS011;38513;53.234;6.568;2022-08-05T01:32:32;12.13;;;5.30;;
52618;SDS011;38513;53.234;6.568;2022-08-05T01:35:01;10.95;;;5.22;;
52618;SDS011;38513;53.234;6.568;2022-08-05T01:37:44;9.77;;;5.15;;
52618;SDS011;38513;53.234;6.568;2022-08-05T01:40:11;10.32;;;5.68;;
52618;SDS011;38513;53.234;6.568;2022-08-05T01:42:38;10.45;;;4.88;;
52618;SDS011;38513;53.234;6.568;2022-08-05T01:45:06;9.43;;;4.95;;
52618;SDS011;38513;53.234;6.568;2022-08-05T01:47:33;8.60;;;4.40;;
52618;SDS011;38513;53.234;6.568;2022-08-05T01:50:03;10.20;;;4.75;;
52618;SDS011;38513;53.234;6.568;2022-08-05T01:52:31;12.30;;;4.57;;
52618;SDS011;38513;53.234;6.568;2022-08-05T01:55:07;10.10;;;4.82;;
52618;SDS011;38513;53.234;6.568;2022-08-05T01:57:37;10.38;;;4.82;;
52618;SDS011;38513;53.234;6.568;2022-08-05T02:00:08;10.00;;;4.80;;
52618;SDS011;38513;53.234;6.568;2022-08-05T02:02:36;9.48;;;5.07;;
52618;SDS011;38513;53.234;6.568;2022-08-05T02:05:03;11.40;;;5.50;;
52618;SDS011;38513;53.234;6.568;2022-08-05T02:07:31;10.05;;;4.82;;
52618;SDS011;38513;53.234;6.568;2022-08-05T02:09:57;10.52;;;5.20;;
52618;SDS011;38513;53.234;6.568;2022-08-05T02:12:45;11.35;;;5.07;;
52618;SDS011;38513;53.234;6.568;2022-08-05T02:17:40;12.73;;;5.22;;
52618;SDS011;38513;53.234;6.568;2022-08-05T02:20:11;10.98;;;5.47;;
52618;SDS011;38513;53.234;6.568;2022-08-05T02:22:41;10.23;;;5.22;;
52618;SDS011;38513;53.234;6.568;2022-08-05T02:25:12;9.07;;;4.90;;
52618;SDS011;38513;53.234;6.568;2022-08-05T02:27:39;13.32;;;5.40;;
52618;SDS011;38513;53.234;6.568;2022-08-05T02:30:07;9.57;;;4.63;;
52618;SDS011;38513;53.234;6.568;2022-08-05T02:32:35;12.20;;;4.90;;
52618;SDS011;38513;53.234;6.568;2022-08-05T02:35:03;11.27;;;4.57;;
52618;SDS011;38513;53.234;6.568;2022-08-05T02:37:36;10.98;;;4.63;;
52618;SDS011;38513;53.234;6.568;2022-08-05T02:40:03;10.23;;;4.57;;
52618;SDS011;38513;53.234;6.568;2022-08-05T02:42:30;9.85;;;4.20;;
52618;SDS011;38513;53.234;6.568;2022-08-05T02:44:57;11.35;;;4.78;;
52618;SDS011;38513;53.234;6.568;2022-08-05T02:47:29;9.65;;;4.40;;
52618;SDS011;38513;53.234;6.568;2022-08-05T02:50:02;10.30;;;4.60;;
52618;SDS011;38513;53.234;6.568;2022-08-05T02:52:32;10.10;;;4.22;;
52618;SDS011;38513;53.234;6.568;2022-08-05T02:55:01;11.88;;;4.65;;
52618;SDS011;38513;53.234;6.568;2022-08-05T02:57:39;10.53;;;4.83;;
52618;SDS011;38513;53.234;6.568;2022-08-05T03:00:06;9.77;;;4.35;;
52618;SDS011;38513;53.234;6.568;2022-08-05T03:02:36;10.98;;;4.35;;
52618;SDS011;38513;53.234;6.568;2022-08-05T03:05:04;8.35;;;4.10;;
52618;SDS011;38513;53.234;6.568;2022-08-05T03:07:32;9.75;;;4.85;;
52618;SDS011;38513;53.234;6.568;2022-08-05T03:09:58;8.88;;;4.25;;
52618;SDS011;38513;53.234;6.568;2022-08-05T03:12:28;8.85;;;4.13;;
52618;SDS011;38513;53.234;6.568;2022-08-05T03:14:55;9.63;;;4.77;;
52618;SDS011;38513;53.234;6.568;2022-08-05T03:17:23;10.63;;;4.80;;
52618;SDS011;38513;53.234;6.568;2022-08-05T03:19:49;11.73;;;4.85;;
52618;SDS011;38513;53.234;6.568;2022-08-05T03:22:16;10.25;;;4.28;;
52618;SDS011;38513;53.234;6.568;2022-08-05T03:24:45;9.23;;;4.85;;
52618;SDS011;38513;53.234;6.568;2022-08-05T03:27:11;10.10;;;4.68;;
52618;SDS011;38513;53.234;6.568;2022-08-05T03:29:38;12.25;;;5.00;;
52618;SDS011;38513;53.234;6.568;2022-08-05T03:32:05;11.43;;;4.82;;
52618;SDS011;38513;53.234;6.568;2022-08-05T03:34:31;9.68;;;5.00;;
52618;SDS011;38513;53.234;6.568;2022-08-05T03:36:57;10.10;;;5.13;;
52618;SDS011;38513;53.234;6.568;2022-08-05T03:39:24;10.38;;;5.13;;
52618;SDS011;38513;53.234;6.568;2022-08-05T03:41:50;8.98;;;4.60;;
52618;SDS011;38513;53.234;6.568;2022-08-05T03:44:16;10.38;;;4.70;;
52618;SDS011;38513;53.234;6.568;2022-08-05T03:46:42;9.35;;;4.55;;
52618;SDS011;38513;53.234;6.568;2022-08-05T03:49:08;10.73;;;4.90;;
52618;SDS011;38513;53.234;6.568;2022-08-05T03:51:35;9.05;;;4.95;;
52618;SDS011;38513;53.234;6.568;2022-08-05T03:56:43;9.02;;;4.70;;
52618;SDS011;38513;53.234;6.568;2022-08-05T03:59:12;8.68;;;4.50;;
52618;SDS011;38513;53.234;6.568;2022-08-05T04:01:41;10.40;;;4.55;;
52618;SDS011;38513;53.234;6.568;2022-08-05T04:04:08;9.85;;;4.35;;
52618;SDS011;38513;53.234;6.568;2022-08-05T04:06:35;10.68;;;4.68;;
52618;SDS011;38513;53.234;6.568;2022-08-05T04:09:02;9.05;;;4.25;;
52618;SDS011;38513;53.234;6.568;2022-08-05T04:11:33;7.55;;;3.97;;
52618;SDS011;38513;53.234;6.568;2022-08-05T04:14:02;8.93;;;3.77;;
52618;SDS011;38513;53.234;6.568;2022-08-05T04:16:28;10.55;;;4.20;;
52618;SDS011;38513;53.234;6.568;2022-08-05T04:18:56;8.60;;;4.23;;
52618;SDS011;38513;53.234;6.568;2022-08-05T04:21:23;8.18;;;4.13;;
52618;SDS011;38513;53.234;6.568;2022-08-05T04:23:49;7.95;;;4.28;;
52618;SDS011;38513;53.234;6.568;2022-08-05T04:26:15;8.37;;;4.20;;
52618;SDS011;38513;53.234;6.568;2022-08-05T04:28:41;8.48;;;4.40;;
52618;SDS011;38513;53.234;6.568;2022-08-05T04:31:07;9.25;;;5.05;;
52618;SDS011;38513;53.234;6.568;2022-08-05T04:33:33;10.88;;;4.75;;
52618;SDS011;38513;53.234;6.568;2022-08-05T04:35:59;9.15;;;4.93;;
52618;SDS011;38513;53.234;6.568;2022-08-05T04:38:26;8.70;;;4.30;;
52618;SDS011;38513;53.234;6.568;2022-08-05T04:40:52;12.38;;;4.85;;
52618;SDS011;38513;53.234;6.568;2022-08-05T04:43:18;9.27;;;4.60;;
52618;SDS011;38513;53.234;6.568;2022-08-05T04:45:44;9.95;;;4.63;;
52618;SDS011;38513;53.234;6.568;2022-08-05T04:48:11;9.43;;;4.75;;
52618;SDS011;38513;53.234;6.568;2022-08-05T04:50:41;10.35;;;4.47;;
52618;SDS011;38513;53.234;6.568;2022-08-05T04:53:08;10.07;;;4.70;;
52618;SDS011;38513;53.234;6.568;2022-08-05T04:55:35;9.50;;;4.55;;
52618;SDS011;38513;53.234;6.568;2022-08-05T04:58:02;7.53;;;4.18;;
52618;SDS011;38513;53.234;6.568;2022-08-05T05:00:29;9.63;;;4.57;;
52618;SDS011;38513;53.234;6.568;2022-08-05T05:03:02;8.32;;;4.50;;
52618;SDS011;38513;53.234;6.568;2022-08-05T05:05:29;10.15;;;4.80;;
52618;SDS011;38513;53.234;6.568;2022-08-05T05:10:28;9.87;;;4.87;;
52618;SDS011;38513;53.234;6.568;2022-08-05T05:12:55;9.32;;;5.03;;
52618;SDS011;38513;53.234;6.568;2022-08-05T05:15:21;8.77;;;5.05;;
52618;SDS011;38513;53.234;6.568;2022-08-05T05:17:50;9.70;;;5.22;;
52618;SDS011;38513;53.234;6.568;2022-08-05T05:20:16;10.35;;;4.85;;
52618;SDS011;38513;53.234;6.568;2022-08-05T05:22:42;9.52;;;4.90;;
52618;SDS011;38513;53.234;6.568;2022-08-05T05:25:09;11.55;;;5.07;;
52618;SDS011;38513;53.234;6.568;2022-08-05T05:27:35;10.02;;;5.10;;
52618;SDS011;38513;53.234;6.568;2022-08-05T05:30:01;8.93;;;5.05;;
52618;SDS011;38513;53.234;6.568;2022-08-05T05:32:27;11.00;;;5.30;;
52618;SDS011;38513;53.234;6.568;2022-08-05T05:34:53;9.43;;;5.07;;
52618;SDS011;38513;53.234;6.568;2022-08-05T05:37:19;10.27;;;5.00;;
52618;SDS011;38513;53.234;6.568;2022-08-05T05:39:46;7.38;;;4.97;;
52618;SDS011;38513;53.234;6.568;2022-08-05T05:42:12;8.15;;;5.15;;
52618;SDS011;38513;53.234;6.568;2022-08-05T05:44:38;9.68;;;5.20;;
52618;SDS011;38513;53.234;6.568;2022-08-05T05:47:04;10.15;;;5.20;;
52618;SDS011;38513;53.234;6.568;2022-08-05T05:49:34;10.07;;;5.03;;
52618;SDS011;38513;53.234;6.568;2022-08-05T05:52:00;8.68;;;4.90;;
52618;SDS011;38513;53.234;6.568;2022-08-05T05:54:26;8.45;;;4.95;;
52618;SDS011;38513;53.234;6.568;2022-08-05T05:56:52;9.10;;;5.05;;
52618;SDS011;38513;53.234;6.568;2022-08-05T05:59:18;8.20;;;4.30;;
52618;SDS011;38513;53.234;6.568;2022-08-05T06:01:44;8.43;;;4.43;;
52618;SDS011;38513;53.234;6.568;2022-08-05T06:04:11;10.40;;;4.88;;
52618;SDS011;38513;53.234;6.568;2022-08-05T06:06:38;9.05;;;4.68;;
52618;SDS011;38513;53.234;6.568;2022-08-05T06:09:06;9.52;;;4.88;;
52618;SDS011;38513;53.234;6.568;2022-08-05T06:11:32;8.40;;;4.78;;
52618;SDS011;38513;53.234;6.568;2022-08-05T06:14:01;8.10;;;4.43;;
52618;SDS011;38513;53.234;6.568;2022-08-05T06:16:27;12.52;;;4.68;;
52618;SDS011;38513;53.234;6.568;2022-08-05T06:18:53;8.32;;;4.32;;
52618;SDS011;38513;53.234;6.568;2022-08-05T06:21:19;8.10;;;4.22;;
52618;SDS011;38513;53.234;6.568;2022-08-05T06:23:45;6.93;;;3.78;;
52618;SDS011;38513;53.234;6.568;2022-08-05T06:26:11;9.13;;;3.97;;
52618;SDS011;38513;53.234;6.568;2022-08-05T06:28:38;8.15;;;3.65;;
52618;SDS011;38513;53.234;6.568;2022-08-05T06:31:04;8.93;;;3.80;;
52618;SDS011;38513;53.234;6.568;2022-08-05T06:33:30;7.27;;;3.23;;
52618;SDS011;38513;53.234;6.568;2022-08-05T06:36:01;6.90;;;2.25;;
52618;SDS011;38513;53.234;6.568;2022-08-05T06:38:37;6.63;;;2.20;;
52618;SDS011;38513;53.234;6.568;2022-08-05T06:41:06;5.45;;;2.10;;
52618;SDS011;38513;53.234;6.568;2022-08-05T06:43:33;6.45;;;2.40;;
52618;SDS011;38513;53.234;6.568;2022-08-05T06:45:59;7.07;;;2.40;;
52618;SDS011;38513;53.234;6.568;2022-08-05T06:48:28;6.30;;;2.20;;
52618;SDS011;38513;53.234;6.568;2022-08-05T06:50:54;6.07;;;2.30;;
52618;SDS011;38513;53.234;6.568;2022-08-05T06:53:20;6.85;;;2.38;;
52618;SDS011;38513;53.234;6.568;2022-08-05T06:55:46;5.45;;;1.88;;
52618;SDS011;38513;53.234;6.568;2022-08-05T06:58:12;7.18;;;2.00;;
52618;SDS011;38513;53.234;6.568;2022-08-05T07:00:38;6.80;;;1.80;;
52618;SDS011;38513;53.234;6.568;2022-08-05T07:03:05;5.32;;;1.35;;
52618;SDS011;38513;53.234;6.568;2022-08-05T07:05:31;4.90;;;1.50;;
52618;SDS011;38513;53.234;6.568;2022-08-05T07:07:57;6.03;;;1.48;;
52618;SDS011;38513;53.234;6.568;2022-08-05T07:10:23;6.22;;;1.60;;
52618;SDS011;38513;53.234;6.568;2022-08-05T07:12:50;4.28;;;1.27;;
52618;SDS011;38513;53.234;6.568;2022-08-05T07:15:37;4.38;;;1.30;;
52618;SDS011;38513;53.234;6.568;2022-08-05T07:18:25;4.53;;;1.25;;
52618;SDS011;38513;53.234;6.568;2022-08-05T07:20:54;4.35;;;1.30;;
52618;SDS011;38513;53.234;6.568;2022-08-05T07:23:21;6.07;;;1.33;;
52618;SDS011;38513;53.234;6.568;2022-08-05T07:25:48;4.97;;;1.37;;
52618;SDS011;38513;53.234;6.568;2022-08-05T07:28:14;3.22;;;1.10;;
52618;SDS011;38513;53.234;6.568;2022-08-05T07:30:40;5.10;;;1.20;;
52618;SDS011;38513;53.234;6.568;2022-08-05T07:33:07;5.27;;;1.60;;
52618;SDS011;38513;53.234;6.568;2022-08-05T07:35:34;6.10;;;1.17;;
52618;SDS011;38513;53.234;6.568;2022-08-05T07:38:04;3.55;;;1.02;;
52618;SDS011;38513;53.234;6.568;2022-08-05T07:40:33;5.65;;;1.23;;
52618;SDS011;38513;53.234;6.568;2022-08-05T07:42:59;5.18;;;1.08;;
52618;SDS011;38513;53.234;6.568;2022-08-05T07:45:28;4.43;;;1.20;;
52618;SDS011;38513;53.234;6.568;2022-08-05T07:47:54;5.23;;;1.10;;
52618;SDS011;38513;53.234;6.568;2022-08-05T07:50:23;3.35;;;0.82;;
52618;SDS011;38513;53.234;6.568;2022-08-05T07:52:49;3.78;;;0.90;;
52618;SDS011;38513;53.234;6.568;2022-08-05T07:55:15;4.22;;;0.90;;
52618;SDS011;38513;53.234;6.568;2022-08-05T07:57:41;3.88;;;1.05;;
52618;SDS011;38513;53.234;6.568;2022-08-05T08:00:08;3.67;;;0.80;;
52618;SDS011;38513;53.234;6.568;2022-08-05T08:02:34;6.65;;;1.30;;
52618;SDS011;38513;53.234;6.568;2022-08-05T08:05:06;4.63;;;0.98;;
52618;SDS011;38513;53.234;6.568;2022-08-05T08:07:33;4.33;;;0.97;;
52618;SDS011;38513;53.234;6.568;2022-08-05T08:09:59;5.03;;;1.10;;
52618;SDS011;38513;53.234;6.568;2022-08-05T08:12:25;4.35;;;0.80;;
52618;SDS011;38513;53.234;6.568;2022-08-05T08:14:51;3.97;;;0.80;;
52618;SDS011;38513;53.234;6.568;2022-08-05T08:17:18;4.97;;;0.90;;
52618;SDS011;38513;53.234;6.568;2022-08-05T08:19:44;4.32;;;1.00;;
52618;SDS011;38513;53.234;6.568;2022-08-05T08:22:10;3.63;;;0.90;;
52618;SDS011;38513;53.234;6.568;2022-08-05T08:24:36;3.65;;;1.10;;
52618;SDS011;38513;53.234;6.568;2022-08-05T08:27:03;3.28;;;0.90;;
52618;SDS011;38513;53.234;6.568;2022-08-05T08:29:29;4.20;;;1.02;;
52618;SDS011;38513;53.234;6.568;2022-08-05T08:31:58;3.92;;;0.85;;
52618;SDS011;38513;53.234;6.568;2022-08-05T08:34:25;4.65;;;0.90;;
52618;SDS011;38513;53.234;6.568;2022-08-05T08:36:51;3.90;;;1.00;;
52618;SDS011;38513;53.234;6.568;2022-08-05T08:39:19;6.50;;;1.00;;
52618;SDS011;38513;53.234;6.568;2022-08-05T08:41:48;5.40;;;1.10;;
52618;SDS011;38513;53.234;6.568;2022-08-05T08:44:16;5.32;;;0.90;;
52618;SDS011;38513;53.234;6.568;2022-08-05T08:46:42;5.05;;;1.00;;
52618;SDS011;38513;53.234;6.568;2022-08-05T08:49:11;5.22;;;1.05;;
52618;SDS011;38513;53.234;6.568;2022-08-05T08:51:39;3.45;;;0.80;;
52618;SDS011;38513;53.234;6.568;2022-08-05T08:54:05;4.78;;;1.00;;
52618;SDS011;38513;53.234;6.568;2022-08-05T08:56:32;4.53;;;0.90;;
52618;SDS011;38513;53.234;6.568;2022-08-05T08:58:58;3.47;;;0.80;;
52618;SDS011;38513;53.234;6.568;2022-08-05T09:01:25;4.28;;;0.90;;
52618;SDS011;38513;53.234;6.568;2022-08-05T09:03:52;5.47;;;1.20;;
52618;SDS011;38513;53.234;6.568;2022-08-05T09:06:18;4.55;;;0.85;;
52618;SDS011;38513;53.234;6.568;2022-08-05T09:08:47;2.58;;;0.70;;
52618;SDS011;38513;53.234;6.568;2022-08-05T09:11:14;3.78;;;0.90;;
52618;SDS011;38513;53.234;6.568;2022-08-05T09:13:40;5.35;;;0.95;;
52618;SDS011;38513;53.234;6.568;2022-08-05T09:16:07;5.53;;;0.90;;
52618;SDS011;38513;53.234;6.568;2022-08-05T09:18:36;4.85;;;0.90;;
52618;SDS011;38513;53.234;6.568;2022-08-05T09:21:02;5.63;;;1.70;;
52618;SDS011;38513;53.234;6.568;2022-08-05T09:23:28;5.07;;;0.98;;
52618;SDS011;38513;53.234;6.568;2022-08-05T09:29:00;3.60;;;0.80;;
52618;SDS011;38513;53.234;6.568;2022-08-05T09:31:28;3.28;;;0.82;;
52618;SDS011;38513;53.234;6.568;2022-08-05T09:34:01;3.65;;;0.80;;
52618;SDS011;38513;53.234;6.568;2022-08-05T09:39:23;4.13;;;0.77;;
52618;SDS011;38513;53.234;6.568;2022-08-05T09:42:03;4.95;;;0.90;;
52618;SDS011;38513;53.234;6.568;2022-08-05T09:44:38;3.93;;;0.77;;
52618;SDS011;38513;53.234;6.568;2022-08-05T09:47:15;2.90;;;0.68;;
52618;SDS011;38513;53.234;6.568;2022-08-05T09:49:42;5.78;;;0.90;;
52618;SDS011;38513;53.234;6.568;2022-08-05T09:52:15;4.00;;;0.80;;
52618;SDS011;38513;53.234;6.568;2022-08-05T09:54:58;4.13;;;0.90;;
52618;SDS011;38513;53.234;6.568;2022-08-05T09:57:41;2.95;;;0.93;;
52618;SDS011;38513;53.234;6.568;2022-08-05T10:00:09;4.80;;;0.80;;
52618;SDS011;38513;53.234;6.568;2022-08-05T10:02:40;3.15;;;0.85;;
52618;SDS011;38513;53.234;6.568;2022-08-05T10:05:16;3.15;;;0.70;;
52618;SDS011;38513;53.234;6.568;2022-08-05T10:10:15;4.07;;;0.90;;
52618;SDS011;38513;53.234;6.568;2022-08-05T10:12:42;3.42;;;0.70;;
52618;SDS011;38513;53.234;6.568;2022-08-05T10:15:22;3.90;;;0.70;;
52618;SDS011;38513;53.234;6.568;2022-08-05T10:18:03;3.15;;;0.70;;
52618;SDS011;38513;53.234;6.568;2022-08-05T10:20:30;3.77;;;0.70;;
52618;SDS011;38513;53.234;6.568;2022-08-05T10:22:56;2.55;;;0.63;;
52618;SDS011;38513;53.234;6.568;2022-08-05T10:25:22;3.60;;;0.65;;
52618;SDS011;38513;53.234;6.568;2022-08-05T10:27:48;3.30;;;0.70;;
52618;SDS011;38513;53.234;6.568;2022-08-05T10:30:16;2.38;;;0.50;;
52618;SDS011;38513;53.234;6.568;2022-08-05T10:32:43;2.58;;;0.60;;
52618;SDS011;38513;53.234;6.568;2022-08-05T10:35:09;4.07;;;0.60;;
52618;SDS011;38513;53.234;6.568;2022-08-05T10:37:35;2.47;;;0.70;;
52618;SDS011;38513;53.234;6.568;2022-08-05T10:40:02;2.92;;;0.60;;
52618;SDS011;38513;53.234;6.568;2022-08-05T10:42:30;3.20;;;0.70;;
52618;SDS011;38513;53.234;6.568;2022-08-05T10:45:03;2.78;;;0.60;;
52618;SDS011;38513;53.234;6.568;2022-08-05T10:47:30;3.38;;;0.60;;
52618;SDS011;38513;53.234;6.568;2022-08-05T10:55:05;3.83;;;0.80;;
52618;SDS011;38513;53.234;6.568;2022-08-05T10:57:32;1.73;;;0.50;;
52618;SDS011;38513;53.234;6.568;2022-08-05T11:02:34;2.60;;;0.60;;
52618;SDS011;38513;53.234;6.568;2022-08-05T11:05:05;2.33;;;0.57;;
52618;SDS011;38513;53.234;6.568;2022-08-05T11:07:33;3.13;;;0.70;;
52618;SDS011;38513;53.234;6.568;2022-08-05T11:10:00;3.60;;;0.65;;
52618;SDS011;38513;53.234;6.568;2022-08-05T11:15:16;2.22;;;0.60;;
52618;SDS011;38513;53.234;6.568;2022-08-05T11:17:43;3.83;;;0.57;;
52618;SDS011;38513;53.234;6.568;2022-08-05T11:22:55;3.15;;;0.60;;
52618;SDS011;38513;53.234;6.568;2022-08-05T11:27:54;3.75;;;0.60;;
52618;SDS011;38513;53.234;6.568;2022-08-05T11:30:20;2.20;;;0.60;;
52618;SDS011;38513;53.234;6.568;2022-08-05T11:32:50;3.75;;;0.63;;
52618;SDS011;38513;53.234;6.568;2022-08-05T11:35:50;4.28;;;0.80;;
52618;SDS011;38513;53.234;6.568;2022-08-05T11:39:05;4.75;;;0.70;;
52618;SDS011;38513;53.234;6.568;2022-08-05T11:43:32;7.05;;;0.88;;
52618;SDS011;38513;53.234;6.568;2022-08-05T11:45:59;4.93;;;0.80;;
52618;SDS011;38513;53.234;6.568;2022-08-05T11:48:28;5.07;;;0.70;;
52618;SDS011;38513;53.234;6.568;2022-08-05T11:50:58;4.05;;;0.70;;
52618;SDS011;38513;53.234;6.568;2022-08-05T11:53:24;3.80;;;0.60;;
52618;SDS011;38513;53.234;6.568;2022-08-05T11:55:54;3.40;;;0.70;;
52618;SDS011;38513;53.234;6.568;2022-08-05T11:58:40;5.00;;;1.00;;
52618;SDS011;38513;53.234;6.568;2022-08-05T12:01:08;3.42;;;0.70;;
52618;SDS011;38513;53.234;6.568;2022-08-05T12:03:53;3.05;;;0.57;;
52618;SDS011;38513;53.234;6.568;2022-08-05T12:06:23;4.75;;;0.88;;
52618;SDS011;38513;53.234;6.568;2022-08-05T12:08:52;3.42;;;0.70;;
52618;SDS011;38513;53.234;6.568;2022-08-05T12:11:22;2.20;;;0.50;;
52618;SDS011;38513;53.234;6.568;2022-08-05T12:13:56;4.40;;;0.80;;
52618;SDS011;38513;53.234;6.568;2022-08-05T12:16:23;4.57;;;0.88;;
52618;SDS011;38513;53.234;6.568;2022-08-05T12:18:49;2.72;;;0.60;;
52618;SDS011;38513;53.234;6.568;2022-08-05T12:21:17;3.58;;;0.60;;
52618;SDS011;38513;53.234;6.568;2022-08-05T12:23:53;3.35;;;0.70;;
52618;SDS011;38513;53.234;6.568;2022-08-05T12:26:22;3.63;;;0.80;;
52618;SDS011;38513;53.234;6.568;2022-08-05T12:28:48;4.93;;;0.57;;
52618;SDS011;38513;53.234;6.568;2022-08-05T12:31:14;4.50;;;0.70;;
52618;SDS011;38513;53.234;6.568;2022-08-05T12:33:42;3.75;;;0.70;;
52618;SDS011;38513;53.234;6.568;2022-08-05T12:36:10;3.70;;;0.70;;
52618;SDS011;38513;53.234;6.568;2022-08-05T12:38:36;3.40;;;0.60;;
52618;SDS011;38513;53.234;6.568;2022-08-05T12:41:06;4.05;;;0.65;;
52618;SDS011;38513;53.234;6.568;2022-08-05T12:43:32;3.20;;;0.60;;
52618;SDS011;38513;53.234;6.568;2022-08-05T12:45:58;4.10;;;0.70;;
52618;SDS011;38513;53.234;6.568;2022-08-05T12:48:24;3.08;;;0.60;;
52618;SDS011;38513;53.234;6.568;2022-08-05T12:51:09;3.90;;;0.60;;
52618;SDS011;38513;53.234;6.568;2022-08-05T12:53:43;4.43;;;0.65;;
52618;SDS011;38513;53.234;6.568;2022-08-05T12:56:27;4.20;;;0.77;;
52618;SDS011;38513;53.234;6.568;2022-08-05T12:59:16;3.87;;;0.83;;
52618;SDS011;38513;53.234;6.568;2022-08-05T13:04:39;4.13;;;0.73;;
52618;SDS011;38513;53.234;6.568;2022-08-05T13:07:10;3.90;;;0.70;;
52618;SDS011;38513;53.234;6.568;2022-08-05T13:09:40;3.42;;;0.77;;
52618;SDS011;38513;53.234;6.568;2022-08-05T13:12:08;3.63;;;0.73;;
52618;SDS011;38513;53.234;6.568;2022-08-05T13:14:36;4.95;;;0.90;;
52618;SDS011;38513;53.234;6.568;2022-08-05T13:17:06;3.33;;;0.63;;
52618;SDS011;38513;53.234;6.568;2022-08-05T13:19:35;3.22;;;0.80;;
52618;SDS011;38513;53.234;6.568;2022-08-05T13:22:02;4.05;;;0.90;;
52618;SDS011;38513;53.234;6.568;2022-08-05T13:24:28;4.45;;;0.98;;
52618;SDS011;38513;53.234;6.568;2022-08-05T13:26:54;4.82;;;0.90;;
52618;SDS011;38513;53.234;6.568;2022-08-05T13:29:20;3.75;;;0.75;;
52618;SDS011;38513;53.234;6.568;2022-08-05T13:31:47;2.42;;;0.60;;
52618;SDS011;38513;53.234;6.568;2022-08-05T13:34:16;3.03;;;0.60;;
52618;SDS011;38513;53.234;6.568;2022-08-05T13:36:42;4.82;;;0.70;;
52618;SDS011;38513;53.234;6.568;2022-08-05T13:39:08;3.70;;;0.68;;
52618;SDS011;38513;53.234;6.568;2022-08-05T13:41:35;3.50;;;0.70;;
52618;SDS011;38513;53.234;6.568;2022-08-05T13:44:04;3.72;;;0.73;;
52618;SDS011;38513;53.234;6.568;2022-08-05T13:46:30;3.53;;;0.63;;
52618;SDS011;38513;53.234;6.568;2022-08-05T13:48:57;4.25;;;0.60;;
52618;SDS011;38513;53.234;6.568;2022-08-05T13:51:27;3.67;;;0.60;;
52618;SDS011;38513;53.234;6.568;2022-08-05T13:53:53;2.20;;;0.57;;
52618;SDS011;38513;53.234;6.568;2022-08-05T13:56:23;4.80;;;0.50;;
52618;SDS011;38513;53.234;6.568;2022-08-05T13:58:49;3.83;;;0.60;;
52618;SDS011;38513;53.234;6.568;2022-08-05T14:01:15;6.00;;;0.70;;
52618;SDS011;38513;53.234;6.568;2022-08-05T14:03:41;3.03;;;0.75;;
52618;SDS011;38513;53.234;6.568;2022-08-05T14:06:08;10.40;;;1.90;;
52618;SDS011;38513;53.234;6.568;2022-08-05T14:08:34;8.73;;;1.45;;
52618;SDS011;38513;53.234;6.568;2022-08-05T14:11:00;11.40;;;1.67;;
52618;SDS011;38513;53.234;6.568;2022-08-05T14:13:29;10.68;;;1.40;;
52618;SDS011;38513;53.234;6.568;2022-08-05T14:15:55;11.07;;;1.65;;
52618;SDS011;38513;53.234;6.568;2022-08-05T14:18:21;10.18;;;1.90;;
52618;SDS011;38513;53.234;6.568;2022-08-05T14:20:47;8.05;;;1.35;;
52618;SDS011;38513;53.234;6.568;2022-08-05T14:23:14;8.48;;;1.40;;
52618;SDS011;38513;53.234;6.568;2022-08-05T14:25:41;9.32;;;1.65;;
52618;SDS011;38513;53.234;6.568;2022-08-05T14:28:07;7.45;;;1.52;;
52618;SDS011;38513;53.234;6.568;2022-08-05T14:30:33;7.55;;;1.38;;
52618;SDS011;38513;53.234;6.568;2022-08-05T14:32:59;10.13;;;1.75;;
52618;SDS011;38513;53.234;6.568;2022-08-05T14:35:25;6.97;;;1.30;;
52618;SDS011;38513;53.234;6.568;2022-08-05T14:37:51;7.00;;;1.20;;
52618;SDS011;38513;53.234;6.568;2022-08-05T14:40:17;6.45;;;1.10;;
52618;SDS011;38513;53.234;6.568;2022-08-05T14:42:43;4.03;;;0.90;;
52618;SDS011;38513;53.234;6.568;2022-08-05T14:45:10;4.88;;;0.80;;
52618;SDS011;38513;53.234;6.568;2022-08-05T14:47:36;4.45;;;0.70;;
52618;SDS011;38513;53.234;6.568;2022-08-05T14:50:02;6.90;;;0.90;;
52618;SDS011;38513;53.234;6.568;2022-08-05T14:52:28;5.88;;;0.80;;
52618;SDS011;38513;53.234;6.568;2022-08-05T14:54:54;5.97;;;1.05;;
52618;SDS011;38513;53.234;6.568;2022-08-05T14:57:20;7.07;;;1.00;;
52618;SDS011;38513;53.234;6.568;2022-08-05T14:59:46;4.35;;;1.00;;
52618;SDS011;38513;53.234;6.568;2022-08-05T15:02:13;5.80;;;0.98;;
52618;SDS011;38513;53.234;6.568;2022-08-05T15:04:39;3.97;;;0.65;;
52618;SDS011;38513;53.234;6.568;2022-08-05T15:07:05;3.93;;;0.70;;
52618;SDS011;38513;53.234;6.568;2022-08-05T15:09:31;5.55;;;0.82;;
52618;SDS011;38513;53.234;6.568;2022-08-05T15:11:57;5.10;;;0.85;;
52618;SDS011;38513;53.234;6.568;2022-08-05T15:14:23;6.00;;;0.90;;
52618;SDS011;38513;53.234;6.568;2022-08-05T15:16:49;4.65;;;0.85;;
52618;SDS011;38513;53.234;6.568;2022-08-05T15:19:16;3.10;;;0.70;;
52618;SDS011;38513;53.234;6.568;2022-08-05T15:21:42;4.80;;;0.60;;
52618;SDS011;38513;53.234;6.568;2022-08-05T15:24:08;3.38;;;0.90;;
52618;SDS011;38513;53.234;6.568;2022-08-05T15:26:34;3.93;;;0.60;;
52618;SDS011;38513;53.234;6.568;2022-08-05T15:29:00;3.80;;;0.60;;
52618;SDS011;38513;53.234;6.568;2022-08-05T15:31:27;3.30;;;0.65;;
52618;SDS011;38513;53.234;6.568;2022-08-05T15:33:53;2.33;;;0.50;;
52618;SDS011;38513;53.234;6.568;2022-08-05T15:36:19;3.83;;;0.80;;
52618;SDS011;38513;53.234;6.568;2022-08-05T15:38:45;4.53;;;0.90;;
52618;SDS011;38513;53.234;6.568;2022-08-05T15:41:11;4.40;;;0.77;;
52618;SDS011;38513;53.234;6.568;2022-08-05T15:43:38;5.75;;;0.90;;